createdAt,value
2018-03-27T00:01:54.014Z,44.30
2018-03-27T00:12:12.516Z,44.30
2018-03-27T00:22:31.584Z,44.20
2018-03-27T00:32:59.099Z,44.10
2018-03-27T00:43:15.576Z,44.10
2018-03-27T00:53:31.775Z,44.20
2018-03-27T01:03:45.867Z,44.20
2018-03-27T01:13:58.899Z,44.20
2018-03-27T01:24:18.259Z,44.20
2018-03-27T01:34:33.179Z,44.00
2018-03-27T01:44:51.366Z,43.90
2018-03-27T01:55:06.178Z,44.00
2018-03-27T02:05:31.308Z,43.80
2018-03-27T02:15:49.932Z,43.60
2018-03-27T02:26:00.528Z,43.60
2018-03-27T02:36:11.237Z,43.70
2018-03-27T02:46:36.385Z,43.50
2018-03-27T02:56:58.121Z,43.60
2018-03-27T03:07:22.698Z,43.60
2018-03-27T03:17:34.100Z,43.60
2018-03-27T03:27:47.892Z,44.30
2018-03-27T03:38:04.483Z,44.90
2018-03-27T03:48:21.167Z,44.70
2018-03-27T03:58:35.420Z,44.10
2018-03-27T04:08:46.801Z,44.00
2018-03-27T04:19:00.997Z,43.50
2018-03-27T04:29:12.409Z,43.40
2018-03-27T04:39:23.292Z,43.40
2018-03-27T04:49:33.230Z,45.60
2018-03-27T04:59:44.761Z,47.70
2018-03-27T05:09:55.084Z,48.20
2018-03-27T05:20:07.697Z,45.20
2018-03-27T05:30:29.714Z,45.10
2018-03-27T05:40:44.144Z,43.80
2018-03-27T05:50:54.088Z,43.80
2018-03-27T06:01:10.245Z,44.00
2018-03-27T06:11:23.869Z,44.40
2018-03-27T06:21:37.577Z,44.10
2018-03-27T06:31:46.550Z,44.00
2018-03-27T06:41:57.917Z,44.80
2018-03-27T06:52:08.197Z,45.50
2018-03-27T07:02:19.811Z,46.10
2018-03-27T07:23:00.459Z,48.50
2018-03-27T07:33:11.759Z,48.50
2018-03-27T07:43:28.129Z,48.80
2018-03-27T07:53:48.756Z,49.00
2018-03-27T08:03:58.672Z,48.70
2018-03-27T08:14:13.539Z,48.70
2018-03-27T08:24:26.103Z,49.40
2018-03-27T08:34:40.635Z,49.80
2018-03-27T08:44:54.095Z,51.30
2018-03-27T08:55:03.134Z,51.30
2018-03-27T09:05:14.836Z,52.30
2018-03-27T09:15:24.481Z,52.60
2018-03-27T09:25:40.203Z,52.40
2018-03-27T09:35:54.464Z,52.30
2018-03-27T09:46:09.096Z,52.80
2018-03-27T09:56:27.386Z,52.90
2018-03-27T10:06:38.471Z,52.50
2018-03-27T10:17:04.585Z,52.50
2018-03-27T10:27:21.756Z,55.00
2018-03-27T10:37:35.613Z,55.70
2018-03-27T10:47:46.230Z,55.00
2018-03-27T10:58:05.828Z,56.30
2018-03-27T11:08:15.148Z,55.90
2018-03-27T11:18:30.715Z,57.90
2018-03-27T11:28:52.813Z,58.50
2018-03-27T11:39:05.256Z,58.50
2018-03-27T11:49:17.869Z,58.50
2018-03-27T11:59:27.206Z,58.40
2018-03-27T12:09:41.467Z,58.90
2018-03-27T12:19:52.359Z,59.60
2018-03-27T12:30:08.482Z,59.60
2018-03-27T12:40:18.555Z,59.70
2018-03-27T12:50:31.782Z,60.10
2018-03-27T13:00:45.776Z,60.00
2018-03-27T13:10:57.275Z,60.00
2018-03-27T13:21:06.490Z,59.50
2018-03-27T14:24:43.237Z,60.30
2018-03-27T14:34:55.909Z,60.60
2018-03-27T14:45:08.550Z,60.60
2018-03-27T14:55:21.834Z,60.40
2018-03-27T15:05:35.718Z,58.90
2018-03-27T15:37:05.463Z,59.10
2018-03-27T15:47:20.150Z,57.90
2018-03-27T15:57:36.183Z,58.80
2018-03-27T16:07:49.553Z,58.80
2018-03-27T16:18:01.903Z,59.20
2018-03-27T16:28:11.873Z,59.10
2018-03-27T16:59:05.071Z,58.70
2018-03-27T17:09:16.305Z,58.60
2018-03-27T17:19:31.512Z,58.50
2018-03-27T17:50:21.528Z,58.50
2018-03-27T18:00:38.464Z,58.60
2018-03-27T18:10:49.033Z,58.50
2018-03-27T18:21:04.653Z,58.20
2018-03-27T18:31:15.245Z,58.20
2018-03-27T18:41:30.123Z,58.20
2018-03-27T18:51:42.671Z,58.20
2018-03-27T19:01:54.023Z,57.90
2018-03-27T19:12:10.108Z,57.40
2018-03-27T19:22:19.663Z,57.50
2018-03-27T19:32:31.180Z,57.20
2018-03-27T19:42:42.906Z,57.20
2018-03-27T19:52:52.869Z,56.80
2018-03-27T20:03:05.568Z,56.80
2018-03-27T20:13:15.824Z,56.60
2018-03-27T20:23:24.704Z,56.50
2018-03-27T20:33:32.565Z,56.30
2018-03-27T20:43:45.293Z,56.40
2018-03-27T20:53:55.219Z,56.00
2018-03-27T21:04:11.926Z,55.70
2018-03-27T21:14:24.504Z,56.30
2018-03-27T21:24:34.187Z,55.50
2018-03-27T21:34:48.177Z,55.50
2018-03-27T21:44:57.786Z,54.10
2018-03-27T21:55:10.746Z,54.10
2018-03-27T22:05:22.817Z,54.80
2018-03-27T22:15:38.210Z,54.70
2018-03-27T22:25:50.132Z,54.40
2018-03-27T22:36:03.792Z,53.90
2018-03-27T22:46:13.874Z,53.90
2018-03-27T22:56:22.866Z,54.10
2018-03-27T23:06:41.787Z,54.70
2018-03-27T23:16:51.796Z,53.20
2018-03-27T23:27:08.029Z,52.70
2018-03-27T23:37:23.315Z,51.20
2018-03-27T23:47:40.124Z,50.50
2018-03-27T23:57:53.405Z,49.20
